Aviation Digital Data Service (ADDS)

Output produced by METARs form (1901 UTC 22 September 2017)
found at http://www.aviationweather.gov/adds/metars/
 
TAF RPLC 221700Z 2218/2324 05004KT 9999 SCT020 BKN300 TX33/2306Z TN26/2221Z 
     TEMPO 2218/2224 27003KT 8000 -RA SCT020 OVC100